Time;durP1;ratioP1;P1;durP2;ratioP2;P2;SDS_P1;SDS_P2;PMS_P1;PMS_P2;Temp;Humidity;BMP_temperature;BMP_pressure;BME280_temperature;BME280_humidity;BME280_pressure;Samples;Min_cycle;Max_cycle;Signal;HPM_P1;HPM_P2
2022/11/18 00:01:18;;;;;;;19.73;13.27;;;;;;;10.51;100.00;96928.16;5116160;27;20024;-62
2022/11/18 00:03:44;;;;;;;21.27;13.82;;;;;;;10.49;100.00;96924.91;5096742;28;20031;-62
2022/11/18 00:06:12;;;;;;;20.05;13.73;;;;;;;10.38;100.00;96915.81;5077199;28;20038;-61
2022/11/18 00:08:37;;;;;;;20.63;14.23;;;;;;;10.34;100.00;96926.78;5084928;28;20046;-59
2022/11/18 00:14:17;;;;;;;19.17;13.50;;;;;;;10.34;100.00;96937.16;5083722;28;20077;-61
2022/11/18 00:14:17;;;;;;;21.05;14.90;;;;;;;10.38;100.00;96930.59;5093009;28;20043;-59
2022/11/18 00:16:47;;;;;;;20.27;13.73;;;;;;;10.47;100.00;96934.69;5083984;28;20043;-60
2022/11/18 00:19:13;;;;;;;21.50;13.90;;;;;;;10.46;100.00;96930.50;5079575;28;20039;-59
2022/11/18 00:21:39;;;;;;;19.40;13.45;;;;;;;10.46;100.00;96937.47;5081096;28;20027;-60
2022/11/18 00:24:05;;;;;;;20.42;13.27;;;;;;;10.40;100.00;96931.22;5082976;28;20024;-59
2022/11/18 00:26:30;;;;;;;18.50;14.55;;;;;;;10.47;100.00;96932.09;5080488;28;20031;-59
2022/11/18 00:28:55;;;;;;;19.30;13.65;;;;;;;10.47;100.00;96923.50;5096592;28;20020;-62
2022/11/18 00:31:21;;;;;;;21.65;14.48;;;;;;;10.47;100.00;96918.31;5081481;28;20093;-61
2022/11/18 00:33:46;;;;;;;21.50;14.10;;;;;;;10.48;100.00;96925.91;5080305;28;20035;-62
2022/11/18 00:36:12;;;;;;;19.23;12.93;;;;;;;10.52;100.00;96916.75;5085761;28;20044;-60
2022/11/18 00:38:38;;;;;;;21.77;14.05;;;;;;;10.33;100.00;96919.97;5084489;28;20786;-59
2022/11/18 00:41:12;;;;;;;17.17;12.35;;;;;;;10.37;100.00;96910.81;5089808;28;20036;-59
2022/11/18 00:43:38;;;;;;;20.50;12.77;;;;;;;10.25;100.00;96899.28;5080344;28;20038;-59
2022/11/18 00:46:05;;;;;;;17.48;12.65;;;;;;;10.25;100.00;96894.06;5102222;28;20457;-59
2022/11/18 00:48:31;;;;;;;19.25;13.68;;;;;;;10.23;100.00;96894.25;5078133;28;20012;-59
2022/11/18 00:50:57;;;;;;;18.58;12.73;;;;;;;10.20;100.00;96890.25;5098571;28;20035;-59
2022/11/18 00:53:24;;;;;;;16.40;12.15;;;;;;;10.24;100.00;96885.50;5090448;28;20889;-61
2022/11/18 00:55:50;;;;;;;17.08;12.05;;;;;;;10.27;100.00;96879.09;5086115;28;20033;-59
2022/11/18 00:58:16;;;;;;;16.63;12.32;;;;;;;10.32;100.00;96869.78;5096018;28;20434;-61
2022/11/18 01:00:47;;;;;;;15.68;12.10;;;;;;;10.34;100.00;96878.22;5098648;28;20064;-59
2022/11/18 01:03:13;;;;;;;17.33;12.50;;;;;;;10.27;100.00;96871.31;5094408;28;20023;-59
2022/11/18 01:05:39;;;;;;;16.83;11.90;;;;;;;10.06;100.00;96849.53;5078505;28;20031;-60
2022/11/18 01:08:07;;;;;;;16.63;11.80;;;;;;;10.26;100.00;96878.31;5075830;28;20024;-60
2022/11/18 01:10:32;;;;;;;18.45;12.10;;;;;;;10.31;100.00;96886.41;5097766;28;20028;-60
2022/11/18 01:15:43;;;;;;;16.88;11.68;;;;;;;9.99;100.00;96835.69;5110309;27;20090;-59
2022/11/18 01:18:09;;;;;;;15.65;12.00;;;;;;;10.30;100.00;96876.16;5118439;27;20031;-60
2022/11/18 01:20:35;;;;;;;15.77;12.02;;;;;;;10.28;100.00;96871.13;5084959;28;20035;-59
2022/11/18 01:23:01;;;;;;;14.48;11.02;;;;;;;10.35;100.00;96863.44;5099195;28;20089;-60
2022/11/18 01:25:27;;;;;;;14.95;10.80;;;;;;;10.33;100.00;96870.59;5101595;28;20024;-62
2022/11/18 01:27:52;;;;;;;18.85;11.90;;;;;;;10.20;100.00;96835.69;5097281;28;20102;-61
2022/11/18 01:30:18;;;;;;;15.43;10.57;;;;;;;10.42;100.00;96864.28;5111857;27;20072;-59
2022/11/18 01:32:43;;;;;;;17.33;11.57;;;;;;;10.40;100.00;96868.88;5072680;28;20452;-61
2022/11/18 01:35:10;;;;;;;15.35;11.35;;;;;;;10.38;100.00;96853.47;5080844;28;20039;-61
2022/11/18 01:37:36;;;;;;;15.32;11.32;;;;;;;10.43;100.00;96842.53;5112780;27;20031;-63
2022/11/18 01:40:02;;;;;;;15.63;11.18;;;;;;;10.41;100.00;96836.72;5094440;27;21162;-61
2022/11/18 01:42:28;;;;;;;15.25;10.85;;;;;;;10.35;100.00;96834.88;5101355;28;20020;-61
2022/11/18 01:45:08;;;;;;;14.93;11.35;;;;;;;10.24;100.00;96830.13;5077761;28;20045;-60
2022/11/18 01:47:39;;;;;;;15.57;11.35;;;;;;;10.23;100.00;96816.34;5100727;28;20026;-60
2022/11/18 01:50:06;;;;;;;16.83;11.00;;;;;;;10.11;100.00;96812.63;5102308;28;20030;-58
2022/11/18 01:52:32;;;;;;;14.60;10.98;;;;;;;10.12;100.00;96820.22;5094720;28;20024;-61
2022/11/18 01:55:06;;;;;;;15.05;11.02;;;;;;;10.03;100.00;96803.16;5109595;27;20032;-61
2022/11/18 01:57:32;;;;;;;15.70;10.95;;;;;;;10.03;100.00;96810.94;5111706;27;20032;-61
2022/11/18 02:00:02;;;;;;;16.13;11.38;;;;;;;9.95;100.00;96814.47;5082420;28;20932;-61
2022/11/18 02:02:29;;;;;;;14.82;10.95;;;;;;;10.01;100.00;96826.72;5096634;28;20032;-60
2022/11/18 02:04:55;;;;;;;16.58;11.02;;;;;;;10.01;100.00;96831.09;5100706;28;20426;-60
2022/11/18 02:07:21;;;;;;;15.45;11.35;;;;;;;9.90;100.00;96836.78;5082079;28;20489;-59
2022/11/18 02:09:46;;;;;;;15.55;11.63;;;;;;;9.93;100.00;96836.41;5081103;28;20577;-61
2022/11/18 02:12:12;;;;;;;15.48;11.27;;;;;;;9.96;100.00;96823.06;5076188;27;20038;-60
2022/11/18 02:14:42;;;;;;;15.00;11.13;;;;;;;10.04;100.00;96835.94;5098674;28;20058;-60
2022/11/18 02:17:26;;;;;;;17.30;11.43;;;;;;;9.93;100.00;96837.22;5082317;28;20393;-60
2022/11/18 02:20:12;;;;;;;15.25;10.43;;;;;;;9.78;100.00;96805.31;5095728;28;20110;-61
2022/11/18 02:22:55;;;;;;;15.70;11.43;;;;;;;9.95;100.00;96831.84;5093394;28;20031;-60
2022/11/18 02:25:21;;;;;;;15.15;10.73;;;;;;;9.92;100.00;96816.63;5096503;28;20568;-62
2022/11/18 02:28:07;;;;;;;13.40;10.45;;;;;;;9.96;100.00;96813.47;5101910;28;20118;-60
2022/11/18 02:30:41;;;;;;;14.40;10.55;;;;;;;9.93;100.00;96820.81;5115166;27;20036;-61
2022/11/18 02:33:10;;;;;;;14.90;10.73;;;;;;;9.89;100.00;96809.22;5079196;28;20027;-60
2022/11/18 02:35:39;;;;;;;17.10;11.20;;;;;;;9.97;100.00;96814.31;5082422;28;20023;-60
2022/11/18 02:38:21;;;;;;;13.20;9.90;;;;;;;10.02;100.00;96814.56;5082780;28;20027;-61
2022/11/18 02:40:51;;;;;;;15.38;10.82;;;;;;;10.03;100.00;96813.56;5089373;28;20043;-58
2022/11/18 02:43:27;;;;;;;14.27;10.48;;;;;;;9.71;100.00;96784.50;5096983;28;20024;-60
2022/11/18 02:45:57;;;;;;;16.10;10.07;;;;;;;10.00;100.00;96806.13;5091249;28;20616;-62
2022/11/18 02:48:25;;;;;;;14.48;10.05;;;;;;;10.03;100.00;96818.75;5120601;27;20745;-60
2022/11/18 02:50:51;;;;;;;14.57;10.65;;;;;;;9.97;100.00;96812.50;5096761;28;20067;-61
2022/11/18 02:53:19;;;;;;;14.32;11.05;;;;;;;10.08;100.00;96802.63;5089374;28;20035;-61
2022/11/18 02:55:45;;;;;;;14.35;10.55;;;;;;;10.18;100.00;96805.69;5077077;28;20071;-60
2022/11/18 02:58:12;;;;;;;13.75;10.50;;;;;;;10.20;100.00;96806.31;5114283;27;20019;-61
2022/11/18 03:00:37;;;;;;;14.48;10.50;;;;;;;10.19;100.00;96807.31;5100345;28;20031;-61
2022/11/18 03:03:25;;;;;;;13.05;9.68;;;;;;;10.23;100.00;96805.94;5099365;28;20375;-61
2022/11/18 03:06:06;;;;;;;13.73;9.60;;;;;;;10.23;100.00;96808.53;5094384;28;20039;-62
2022/11/18 03:08:41;;;;;;;12.77;9.82;;;;;;;10.09;100.00;96778.25;5107011;27;20077;-61
2022/11/18 03:11:17;;;;;;;12.05;8.43;;;;;;;10.30;100.00;96813.81;5097295;28;20035;-61
2022/11/18 03:14:08;;;;;;;12.80;8.98;;;;;;;10.23;100.00;96816.34;5083778;28;20038;-61
2022/11/18 03:16:59;;;;;;;11.20;8.40;;;;;;;10.22;100.00;96817.31;5100087;28;20065;-61
2022/11/18 03:19:30;;;;;;;13.35;9.23;;;;;;;9.85;100.00;96788.00;5077461;28;20027;-62
2022/11/18 03:22:02;;;;;;;13.13;8.52;;;;;;;10.05;100.00;96829.75;5098094;28;20059;-61
2022/11/18 03:24:31;;;;;;;11.63;8.27;;;;;;;10.04;100.00;96822.13;5096210;28;20027;-61
2022/11/18 03:27:12;;;;;;;10.43;8.30;;;;;;;9.95;100.00;96831.84;5082917;28;20776;-60
2022/11/18 03:29:42;;;;;;;11.43;8.55;;;;;;;9.96;100.00;96831.66;5101402;28;20035;-60
2022/11/18 03:32:20;;;;;;;12.02;8.80;;;;;;;9.93;100.00;96831.22;5081199;28;20161;-62
2022/11/18 03:35:01;;;;;;;11.70;8.48;;;;;;;9.91;100.00;96822.81;5103372;28;20894;-61
2022/11/18 03:37:27;;;;;;;11.80;8.00;;;;;;;9.93;100.00;96821.66;5086015;28;20115;-61
2022/11/18 03:39:56;;;;;;;13.48;9.02;;;;;;;9.81;100.00;96802.34;5098290;28;20047;-58
2022/11/18 03:42:29;;;;;;;11.70;9.13;;;;;;;9.92;100.00;96799.25;5084424;28;20115;-60
2022/11/18 03:45:00;;;;;;;13.00;9.52;;;;;;;9.92;100.00;96780.28;5103074;28;20047;-58
2022/11/18 03:47:30;;;;;;;11.93;8.60;;;;;;;9.92;100.00;96755.13;5085387;28;20035;-63
2022/11/18 03:50:03;;;;;;;13.52;9.25;;;;;;;9.90;100.00;96735.53;5093981;28;20016;-62
2022/11/18 03:52:30;;;;;;;12.85;9.63;;;;;;;9.93;100.00;96742.94;5099669;27;20023;-60
2022/11/18 03:54:57;;;;;;;13.70;8.88;;;;;;;10.00;100.00;96762.81;5096847;27;20051;-62
2022/11/18 03:57:29;;;;;;;15.05;9.63;;;;;;;9.98;100.00;96759.59;5102873;28;20138;-60
2022/11/18 04:00:02;;;;;;;12.60;9.27;;;;;;;9.95;100.00;96759.97;5099210;28;20036;-62
2022/11/18 04:02:28;;;;;;;12.98;9.35;;;;;;;9.83;100.00;96756.25;5106813;27;20104;-61
2022/11/18 04:04:56;;;;;;;10.85;8.15;;;;;;;9.73;100.00;96766.13;5087091;28;20039;-61
2022/11/18 04:07:26;;;;;;;10.25;7.50;;;;;;;9.66;100.00;96768.66;5103350;28;20315;-60
2022/11/18 04:10:07;;;;;;;11.27;7.90;;;;;;;9.70;100.00;96777.69;5103712;28;20067;-60
2022/11/18 04:12:34;;;;;;;10.98;7.65;;;;;;;9.70;100.00;96772.50;5098214;28;20211;-60
2022/11/18 04:15:00;;;;;;;10.65;7.55;;;;;;;9.68;100.00;96771.88;5087082;28;20035;-62
2022/11/18 04:17:26;;;;;;;10.15;7.28;;;;;;;9.77;100.00;96781.16;5080317;28;20066;-61
2022/11/18 04:19:52;;;;;;;10.30;7.85;;;;;;;9.79;100.00;96789.56;5082446;28;20043;-61
2022/11/18 04:22:18;;;;;;;16.02;8.25;;;;;;;9.79;100.00;96799.13;5086226;28;20019;-61
2022/11/18 04:24:43;;;;;;;12.30;9.65;;;;;;;9.77;100.00;96793.31;5081507;28;20047;-62
2022/11/18 04:27:08;;;;;;;11.93;9.23;;;;;;;9.84;100.00;96793.38;5101690;28;20043;-60
2022/11/18 04:29:34;;;;;;;13.45;8.90;;;;;;;9.72;100.00;96786.09;5117598;27;20497;-60
2022/11/18 04:32:00;;;;;;;12.00;8.68;;;;;;;9.72;100.00;96788.69;5083896;28;20057;-60
2022/11/18 04:34:26;;;;;;;13.02;8.75;;;;;;;9.79;100.00;96789.56;5102867;28;20122;-63
2022/11/18 04:36:51;;;;;;;11.15;8.73;;;;;;;9.80;100.00;96798.13;5098133;28;20040;-61
2022/11/18 04:39:19;;;;;;;12.30;7.82;;;;;;;9.86;100.00;96800.00;5083438;28;20035;-61
2022/11/18 04:41:57;;;;;;;10.93;8.00;;;;;;;9.93;100.00;96794.88;5099260;28;20040;-60
2022/11/18 04:44:26;;;;;;;12.40;8.23;;;;;;;10.03;100.00;96795.38;5085431;28;20627;-60
2022/11/18 04:46:52;;;;;;;9.43;7.30;;;;;;;10.03;100.00;96795.38;5098153;28;20035;-61
2022/11/18 04:49:18;;;;;;;12.30;8.13;;;;;;;9.99;100.00;96784.56;5082508;28;20055;-59
2022/11/18 04:51:44;;;;;;;10.65;7.90;;;;;;;10.05;100.00;96784.81;5096371;28;20597;-59
2022/11/18 04:54:11;;;;;;;11.25;8.15;;;;;;;10.01;100.00;96781.78;5100103;28;20031;-57
2022/11/18 04:56:36;;;;;;;11.68;8.07;;;;;;;10.06;100.00;96786.41;5081913;28;20539;-61
2022/11/18 04:59:02;;;;;;;11.90;8.57;;;;;;;10.08;100.00;96781.84;5099491;27;20024;-59
2022/11/18 05:01:28;;;;;;;12.48;8.77;;;;;;;10.08;100.00;96785.25;5080324;28;20020;-59
2022/11/18 05:03:54;;;;;;;12.63;8.65;;;;;;;10.14;100.00;96775.91;5085074;28;20034;-59
2022/11/18 05:06:20;;;;;;;11.15;7.97;;;;;;;10.14;100.00;96776.69;5075970;28;20482;-62
2022/11/18 05:08:45;;;;;;;11.13;8.35;;;;;;;10.20;100.00;96775.13;5078362;28;20070;-60
2022/11/18 05:13:55;;;;;;;10.90;8.23;;;;;;;10.16;100.00;96759.13;5096196;28;20047;-60
2022/11/18 05:16:20;;;;;;;11.25;8.32;;;;;;;10.16;100.00;96766.91;5101409;28;20035;-59
2022/11/18 05:18:45;;;;;;;11.90;8.45;;;;;;;10.10;100.00;96759.88;5101879;28;20027;-59
2022/11/18 05:21:11;;;;;;;13.07;9.02;;;;;;;10.12;100.00;96757.91;5083419;28;20042;-61
2022/11/18 05:23:36;;;;;;;11.45;8.77;;;;;;;10.13;100.00;96759.53;5094924;28;20457;-59
2022/11/18 05:26:06;;;;;;;11.88;9.18;;;;;;;10.14;100.00;96761.13;5100860;28;20032;-60
2022/11/18 05:28:31;;;;;;;;;;;;;;;10.12;100.00;96767.50;5131270;27;20101;-61
2022/11/18 05:30:57;;;;;;;11.57;9.05;;;;;;;9.84;100.00;96723.28;5095197;28;20011;-59
2022/11/18 05:33:22;;;;;;;13.07;9.45;;;;;;;10.11;100.00;96761.50;5082578;28;20792;-59
2022/11/18 05:35:48;;;;;;;13.57;9.57;;;;;;;10.06;100.00;96763.84;5074557;28;20036;-61
2022/11/18 05:38:13;;;;;;;14.02;9.50;;;;;;;10.11;100.00;96753.72;5100483;28;20031;-60
2022/11/18 05:40:41;;;;;;;12.88;9.32;;;;;;;10.16;100.00;96756.53;5101745;28;20059;-59
2022/11/18 05:43:11;;;;;;;12.98;10.10;;;;;;;9.94;100.00;96727.19;5089297;28;20039;-59
2022/11/18 05:45:38;;;;;;;12.45;9.50;;;;;;;9.91;100.00;96726.75;5083501;28;20028;-58
2022/11/18 05:48:04;;;;;;;12.43;9.68;;;;;;;10.09;100.00;96760.06;5083253;28;20031;-59
2022/11/18 05:50:31;;;;;;;12.32;8.75;;;;;;;10.00;100.00;96764.56;5101829;27;20100;-60
2022/11/18 05:52:57;;;;;;;12.93;8.98;;;;;;;9.91;100.00;96768.28;5093592;28;20035;-59
2022/11/18 05:55:26;;;;;;;12.40;9.00;;;;;;;9.88;100.00;96774.66;5098931;28;20728;-57
2022/11/18 05:57:51;;;;;;;12.27;9.05;;;;;;;9.85;100.00;96782.81;5076690;28;20570;-59
2022/11/18 06:00:17;;;;;;;14.10;10.25;;;;;;;9.90;100.00;96771.88;5084087;28;20036;-59
2022/11/18 06:02:44;;;;;;;14.25;9.45;;;;;;;9.64;100.00;96734.31;5079393;28;20044;-58
2022/11/18 06:05:10;;;;;;;13.05;10.00;;;;;;;9.91;100.00;96769.13;5079057;28;20046;-59
2022/11/18 06:07:43;;;;;;;14.57;10.63;;;;;;;9.90;100.00;96780.47;5107408;27;20763;-58
2022/11/18 06:10:16;;;;;;;14.13;10.48;;;;;;;9.86;100.00;96768.88;5075502;28;20825;-58
2022/11/18 06:12:45;;;;;;;14.07;10.23;;;;;;;9.93;100.00;96782.72;5091475;28;20107;-59
2022/11/18 06:15:14;;;;;;;15.00;10.65;;;;;;;9.93;100.00;96784.47;5112544;27;20028;-59
2022/11/18 06:17:52;;;;;;;14.82;10.23;;;;;;;9.89;100.00;96772.88;5097602;28;20031;-59
2022/11/18 06:20:18;;;;;;;15.35;10.52;;;;;;;9.82;100.00;96765.84;5083180;28;20035;-61
2022/11/18 06:22:44;;;;;;;16.45;10.57;;;;;;;9.92;100.00;96773.31;5080538;28;20027;-59
2022/11/18 06:25:09;;;;;;;14.18;10.48;;;;;;;9.78;100.00;96751.63;5096587;28;20081;-58
2022/11/18 06:27:35;;;;;;;14.43;10.38;;;;;;;9.96;100.00;96789.31;5108831;27;20393;-60
2022/11/18 06:30:00;;;;;;;12.55;9.90;;;;;;;9.86;100.00;96794.03;5093171;28;20165;-59
2022/11/18 06:32:26;;;;;;;14.23;10.05;;;;;;;9.85;100.00;96788.00;5098023;28;20027;-61
2022/11/18 06:34:51;;;;;;;15.07;10.48;;;;;;;9.70;100.00;96780.28;5125245;27;20565;-59
2022/11/18 06:37:21;;;;;;;13.13;9.60;;;;;;;9.63;100.00;96763.81;5075550;28;20051;-60
2022/11/18 06:39:46;;;;;;;14.38;9.65;;;;;;;9.94;100.00;96805.06;5095770;28;20786;-60
2022/11/18 06:43:37;;;;;;;12.63;9.07;;;;;;;9.88;100.00;96795.44;5080047;28;20023;-59
2022/11/18 06:44:57;;;;;;;12.35;9.52;;;;;;;9.66;100.00;96768.66;5097752;27;20553;-59
2022/11/18 06:47:22;;;;;;;13.52;9.77;;;;;;;9.79;100.00;96802.53;5089339;28;20024;-59
2022/11/18 06:49:48;;;;;;;12.07;9.35;;;;;;;9.87;100.00;96793.03;5092546;28;20031;-59
2022/11/18 06:52:13;;;;;;;13.63;9.75;;;;;;;9.82;100.00;96802.16;5078620;28;20061;-60
2022/11/18 06:54:39;;;;;;;13.52;9.52;;;;;;;9.80;100.00;96792.94;5096915;28;20391;-61
2022/11/18 06:57:04;;;;;;;13.57;9.30;;;;;;;9.69;100.00;96791.66;5099242;28;20039;-59
2022/11/18 06:59:29;;;;;;;11.98;9.00;;;;;;;9.81;100.00;96790.16;5098182;28;20438;-60
2022/11/18 07:01:55;;;;;;;12.80;9.00;;;;;;;9.75;100.00;96795.31;5071591;28;20054;-58
2022/11/18 07:04:21;;;;;;;12.00;8.93;;;;;;;9.79;100.00;96793.94;5095270;28;20665;-59
2022/11/18 07:06:46;;;;;;;11.32;8.27;;;;;;;9.78;100.00;96800.09;5079545;28;20034;-59
2022/11/18 07:09:12;;;;;;;12.25;9.07;;;;;;;9.75;100.00;96798.69;5094246;28;20517;-60
2022/11/18 07:11:40;;;;;;;12.73;9.07;;;;;;;9.70;100.00;96800.25;5091857;28;20351;-59
2022/11/18 07:14:06;;;;;;;12.30;8.10;;;;;;;9.64;100.00;96791.41;5080278;28;20118;-59
2022/11/18 07:16:33;;;;;;;10.90;7.72;;;;;;;9.64;100.00;96801.78;5096482;28;20131;-60
2022/11/18 07:18:58;;;;;;;11.27;6.95;;;;;;;9.62;100.00;96801.16;5098564;28;20039;-60
2022/11/18 07:21:26;;;;;;;11.68;7.85;;;;;;;9.62;100.00;96798.56;5095822;28;21288;-60
2022/11/18 07:23:51;;;;;;;11.15;7.43;;;;;;;9.69;100.00;96793.44;5090487;28;20023;-60
2022/11/18 07:26:17;;;;;;;11.23;8.23;;;;;;;9.49;100.00;96775.03;5106303;28;20028;-59
2022/11/18 07:28:42;;;;;;;14.25;7.80;;;;;;;9.68;100.00;96808.19;5095341;28;20032;-61
2022/11/18 07:31:16;;;;;;;13.20;8.57;;;;;;;9.62;100.00;96820.13;5096079;28;20027;-58
2022/11/18 07:33:42;;;;;;;10.20;7.13;;;;;;;9.57;100.00;96813.88;5093773;28;20035;-59
2022/11/18 07:36:13;;;;;;;12.55;8.65;;;;;;;9.57;100.00;96822.44;5072874;28;20051;-58
2022/11/18 07:38:39;;;;;;;12.48;8.60;;;;;;;9.43;100.00;96792.16;5093227;28;20087;-60
2022/11/18 07:41:11;;;;;;;12.02;9.15;;;;;;;9.66;100.00;96825.75;5096831;28;20117;-59
2022/11/18 07:43:37;;;;;;;12.52;8.82;;;;;;;9.36;100.00;96784.31;5106783;27;20231;-59
2022/11/18 07:46:15;;;;;;;11.57;8.80;;;;;;;9.64;100.00;96832.91;5091848;28;20038;-59
2022/11/18 07:48:41;;;;;;;13.93;8.75;;;;;;;9.64;100.00;96848.50;5092983;28;20170;-59
2022/11/18 07:51:07;;;;;;;15.88;9.32;;;;;;;9.59;100.00;96840.44;5107575;28;20118;-60
2022/11/18 07:53:33;;;;;;;13.95;9.10;;;;;;;9.61;100.00;96839.25;5095860;28;20542;-58
2022/11/18 07:55:59;;;;;;;14.40;8.45;;;;;;;9.63;100.00;96842.47;5107813;28;20053;-60
2022/11/18 07:58:24;;;;;;;12.48;8.85;;;;;;;9.55;100.00;96844.38;5098825;28;20059;-59
2022/11/18 08:00:50;;;;;;;12.05;8.13;;;;;;;9.53;100.00;96843.78;5097604;28;20077;-61
2022/11/18 08:03:15;;;;;;;12.63;8.07;;;;;;;9.33;100.00;96826.16;5093977;28;20028;-59
2022/11/18 08:05:40;;;;;;;12.75;8.75;;;;;;;9.35;100.00;96836.34;5091995;28;20015;-60
2022/11/18 08:08:06;;;;;;;11.80;7.93;;;;;;;9.14;100.00;96808.53;5093557;28;20028;-60
2022/11/18 08:10:31;;;;;;;13.43;8.73;;;;;;;9.13;100.00;96823.31;5096435;28;20039;-59
2022/11/18 08:12:56;;;;;;;13.13;9.07;;;;;;;9.36;100.00;96846.56;5097474;28;20114;-60
2022/11/18 08:15:23;;;;;;;11.45;8.40;;;;;;;9.36;100.00;96850.91;5076947;28;20036;-60
2022/11/18 08:17:48;;;;;;;12.60;7.90;;;;;;;9.39;100.00;96848.78;5103755;28;20112;-60
2022/11/18 08:20:14;;;;;;;10.90;7.93;;;;;;;9.37;100.00;96850.75;5100674;28;20061;-60
2022/11/18 08:22:39;;;;;;;12.05;8.05;;;;;;;9.35;100.00;96855.31;5099910;28;20695;-60
2022/11/18 08:25:05;;;;;;;11.07;7.05;;;;;;;9.34;100.00;96845.91;5095083;28;20028;-61
2022/11/18 08:27:31;;;;;;;12.20;7.30;;;;;;;9.45;100.00;96846.44;5079505;28;20028;-59
2022/11/18 08:29:56;;;;;;;10.82;6.78;;;;;;;9.35;100.00;96844.94;5096460;27;20019;-60
2022/11/18 08:32:21;;;;;;;11.48;7.45;;;;;;;9.35;100.00;96846.72;5096455;28;20048;-60
2022/11/18 08:34:47;;;;;;;13.10;8.50;;;;;;;9.32;100.00;96841.91;5102244;28;20055;-60
2022/11/18 08:37:12;;;;;;;10.35;6.45;;;;;;;9.29;100.00;96850.84;5113080;27;20051;-60
2022/11/18 08:39:38;;;;;;;10.32;7.07;;;;;;;9.34;100.00;96852.88;5090843;28;20135;-60
2022/11/18 08:42:03;;;;;;;11.93;7.32;;;;;;;9.35;100.00;96860.50;5100994;27;20706;-61
2022/11/18 08:44:32;;;;;;;9.77;6.53;;;;;;;9.29;100.00;96850.03;5099585;27;20907;-61
2022/11/18 08:46:57;;;;;;;11.20;6.18;;;;;;;9.33;100.00;96859.88;5085533;28;20520;-61
2022/11/18 08:49:23;;;;;;;10.85;6.47;;;;;;;9.07;100.00;96818.03;5092099;28;20028;-59
2022/11/18 08:51:48;;;;;;;13.65;7.03;;;;;;;9.10;100.00;96826.25;5081862;28;20032;-60
2022/11/18 08:54:14;;;;;;;14.52;6.95;;;;;;;9.29;100.00;96861.22;5100607;27;20042;-60
2022/11/18 08:56:39;;;;;;;9.27;5.22;;;;;;;9.29;100.00;96860.41;5097190;27;20102;-60
2022/11/18 08:59:05;;;;;;;8.10;4.40;;;;;;;9.13;100.00;96835.47;5075295;28;20693;-60
2022/11/18 09:01:30;;;;;;;9.00;4.15;;;;;;;9.33;100.00;96861.69;5081408;28;20488;-61
2022/11/18 09:03:56;;;;;;;9.52;4.97;;;;;;;9.45;100.00;96874.97;5082086;28;20186;-61
2022/11/18 09:06:25;;;;;;;6.25;2.88;;;;;;;9.51;100.00;96866.47;5085101;28;20141;-60
2022/11/18 09:08:52;;;;;;;4.85;2.40;;;;;;;9.49;100.00;96868.44;5073931;28;20752;-59
2022/11/18 09:11:22;;;;;;;5.70;2.47;;;;;;;9.37;100.00;96848.16;5098753;27;20031;-61
2022/11/18 09:13:54;;;;;;;5.80;2.65;;;;;;;9.47;100.00;96865.22;5086654;28;20423;-60
2022/11/18 09:16:22;;;;;;;4.65;1.98;;;;;;;9.42;100.00;96869.16;5084286;28;20496;-61
2022/11/18 09:18:49;;;;;;;7.07;2.60;;;;;;;9.39;100.00;96863.53;5083698;28;20057;-60
2022/11/18 09:21:15;;;;;;;7.85;3.10;;;;;;;9.35;100.00;96860.50;5100657;27;20473;-60
2022/11/18 09:23:40;;;;;;;7.70;3.28;;;;;;;9.39;100.00;96873.91;5099840;27;20024;-60
2022/11/18 09:26:08;;;;;;;6.70;3.35;;;;;;;9.40;100.00;96873.75;5084042;28;20807;-60
2022/11/18 09:28:34;;;;;;;6.05;2.63;;;;;;;9.46;100.00;96884.38;5096601;27;20316;-60
2022/11/18 09:31:08;;;;;;;5.78;2.70;;;;;;;9.46;100.00;96884.38;5080691;28;20032;-61
2022/11/18 09:33:34;;;;;;;6.30;3.35;;;;;;;9.42;100.00;96879.56;5083993;28;20128;-61
2022/11/18 09:36:00;;;;;;;8.15;4.75;;;;;;;9.50;100.00;96883.84;5091113;28;20027;-60
2022/11/18 09:38:28;;;;;;;7.82;4.25;;;;;;;9.46;100.00;96868.81;5087260;28;20096;-61
2022/11/18 09:40:56;;;;;;;5.60;3.08;;;;;;;9.57;100.00;96874.34;5092535;28;20039;-60
2022/11/18 09:43:34;;;;;;;5.95;2.85;;;;;;;9.74;100.00;96887.13;5090056;28;20050;-60
2022/11/18 09:46:03;;;;;;;5.85;2.58;;;;;;;9.81;100.00;96878.41;5082624;28;20055;-61
2022/11/18 09:51:13;;;;;;;6.00;2.75;;;;;;;10.09;100.00;96882.13;5095122;27;20047;-61
2022/11/18 09:53:43;;;;;;;5.20;1.88;;;;;;;10.18;100.00;96887.03;5099769;27;20812;-61
2022/11/18 09:56:13;;;;;;;7.75;2.65;;;;;;;10.06;100.00;96846.94;5098492;27;20091;-61
2022/11/18 09:58:39;;;;;;;8.18;2.67;;;;;;;10.17;100.00;96856.03;5088596;28;20024;-60
2022/11/18 10:01:11;;;;;;;4.35;1.42;;;;;;;10.42;99.41;96892.06;5087719;28;20032;-60
2022/11/18 10:03:37;;;;;;;3.63;1.27;;;;;;;10.52;98.02;96848.41;5099021;27;20069;-60
2022/11/18 10:06:08;;;;;;;5.95;2.08;;;;;;;10.84;100.00;96890.44;5074541;28;20707;-59
2022/11/18 10:08:44;;;;;;;5.28;1.70;;;;;;;10.86;100.00;96893.63;5079631;27;20035;-60
2022/11/18 10:11:17;;;;;;;6.85;1.80;;;;;;;10.50;100.00;96856.38;5082107;27;20554;-60
2022/11/18 10:13:45;;;;;;;6.00;1.67;;;;;;;10.75;100.00;96890.56;5090649;28;20704;-59
2022/11/18 10:16:40;;;;;;;3.58;1.30;;;;;;;10.78;100.00;96895.38;5082406;28;20043;-59
2022/11/18 10:19:25;;;;;;;4.95;1.92;;;;;;;10.75;100.00;96902.75;5085861;28;20061;-62
2022/11/18 10:21:55;;;;;;;4.65;1.63;;;;;;;10.69;100.00;96901.69;5099891;27;20028;-60
2022/11/18 10:24:23;;;;;;;4.85;1.70;;;;;;;10.56;100.00;96868.59;5099980;27;20707;-59
2022/11/18 10:26:54;;;;;;;5.60;2.58;;;;;;;10.81;100.00;96896.81;5091655;28;20084;-60
2022/11/18 10:29:20;;;;;;;5.28;2.70;;;;;;;10.65;100.00;96864.09;5084964;28;20027;-60
2022/11/18 10:32:03;;;;;;;4.93;2.20;;;;;;;10.92;100.00;96904.09;5083519;28;20550;-60
2022/11/18 10:34:29;;;;;;;4.78;2.28;;;;;;;10.77;100.00;96875.59;5080243;28;20036;-61
2022/11/18 10:37:04;;;;;;;4.80;2.50;;;;;;;11.00;100.00;96902.34;5090167;28;20107;-59
2022/11/18 10:39:29;;;;;;;5.40;2.45;;;;;;;10.85;100.00;96861.63;5082625;28;20043;-60
2022/11/18 10:42:00;;;;;;;6.57;2.15;;;;;;;11.04;100.00;96900.97;5092004;28;20032;-60
2022/11/18 10:44:30;;;;;;;4.20;1.80;;;;;;;11.07;100.00;96896.19;5083908;28;20019;-61
2022/11/18 10:47:25;;;;;;;4.07;1.90;;;;;;;11.23;100.00;96889.13;5082351;28;20602;-59
2022/11/18 10:49:52;;;;;;;4.50;1.95;;;;;;;11.37;100.00;96893.38;5082652;28;20588;-60
2022/11/18 10:52:17;;;;;;;4.88;2.15;;;;;;;11.38;100.00;96889.78;5073857;28;20371;-61
2022/11/18 10:54:43;;;;;;;4.70;2.08;;;;;;;11.43;100.00;96899.66;5085398;28;20093;-60
2022/11/18 10:57:12;;;;;;;4.80;2.20;;;;;;;11.58;100.00;96895.09;5080580;28;20125;-61
2022/11/18 10:59:45;;;;;;;4.25;1.98;;;;;;;11.62;100.00;96893.72;5082314;28;20032;-60
2022/11/18 11:02:30;;;;;;;4.45;1.98;;;;;;;11.53;100.00;96879.25;5084017;28;20050;-60
2022/11/18 11:04:58;;;;;;;4.63;1.52;;;;;;;11.68;100.00;96885.16;5083425;28;20106;-60
2022/11/18 11:07:26;;;;;;;4.13;1.90;;;;;;;11.68;100.00;96892.97;5091223;28;20418;-61
2022/11/18 11:10:01;;;;;;;4.80;2.00;;;;;;;11.78;100.00;96897.00;5083810;28;20016;-61
2022/11/18 11:12:31;;;;;;;4.18;1.77;;;;;;;11.80;100.00;96893.19;5098683;27;20834;-60
2022/11/18 11:14:59;;;;;;;3.67;1.75;;;;;;;11.79;99.93;96896.81;5085210;28;20840;-60
2022/11/18 11:17:32;;;;;;;4.75;1.70;;;;;;;11.85;99.38;96901.25;5101006;27;20051;-61
2022/11/18 11:20:10;;;;;;;4.40;1.63;;;;;;;11.91;99.56;96899.69;5092469;28;20023;-59
2022/11/18 11:22:35;;;;;;;3.42;1.38;;;;;;;11.87;97.82;96888.03;5080890;28;20232;-61
2022/11/18 11:25:00;;;;;;;5.03;1.60;;;;;;;11.76;98.17;96859.94;5083981;28;20669;-60
2022/11/18 11:27:54;;;;;;;4.22;1.60;;;;;;;12.03;99.10;96892.91;5098427;28;20104;-60
2022/11/18 11:30:21;;;;;;;5.45;2.00;;;;;;;12.02;95.78;96898.31;5098611;28;20047;-60
2022/11/18 11:32:57;;;;;;;5.68;1.70;;;;;;;11.98;99.11;96895.31;5097500;28;20028;-60
2022/11/18 11:35:42;;;;;;;3.70;1.45;;;;;;;11.99;98.87;96891.72;5099908;27;20382;-60
2022/11/18 11:38:16;;;;;;;3.70;1.48;;;;;;;12.06;99.68;96884.69;5081467;28;20146;-60